sensor_id;sensor_type;location;lat;lon;timestamp;pressure;altitude;pressure_sealevel;temperature;humidity
66588;BME280;53446;50.076;8.198;2024-01-10T00:00:40;100641.25;;;-1.89;41.23
66588;BME280;53446;50.076;8.198;2024-01-10T00:02:41;100644.75;;;-1.90;41.26
66588;BME280;53446;50.076;8.198;2024-01-10T00:04:41;100641.22;;;-1.87;41.17
66588;BME280;53446;50.076;8.198;2024-01-10T00:06:41;100638.53;;;-1.84;41.19
66588;BME280;53446;50.076;8.198;2024-01-10T00:08:42;100631.50;;;-1.84;41.31
66588;BME280;53446;50.076;8.198;2024-01-10T00:10:42;100628.84;;;-1.84;41.26
66588;BME280;53446;50.076;8.198;2024-01-10T00:12:43;100626.19;;;-1.84;41.23
66588;BME280;53446;50.076;8.198;2024-01-10T00:14:44;100626.19;;;-1.84;41.27
66588;BME280;53446;50.076;8.198;2024-01-10T00:16:44;100628.84;;;-1.87;41.32
66588;BME280;53446;50.076;8.198;2024-01-10T00:18:45;100623.56;;;-1.90;41.43
66588;BME280;53446;50.076;8.198;2024-01-10T00:20:45;100618.25;;;-1.90;41.40
66588;BME280;53446;50.076;8.198;2024-01-10T00:22:45;100625.34;;;-1.92;41.29
66588;BME280;53446;50.076;8.198;2024-01-10T00:24:45;100621.81;;;-1.94;41.71
66588;BME280;53446;50.076;8.198;2024-01-10T00:26:46;100617.41;;;-1.97;41.61
66588;BME280;53446;50.076;8.198;2024-01-10T00:28:46;100618.31;;;-1.99;41.96
66588;BME280;53446;50.076;8.198;2024-01-10T00:30:46;100612.13;;;-2.01;41.93
66588;BME280;53446;50.076;8.198;2024-01-10T00:32:48;100617.47;;;-2.04;41.86
66588;BME280;53446;50.076;8.198;2024-01-10T00:34:48;100617.44;;;-2.06;42.55
66588;BME280;53446;50.076;8.198;2024-01-10T00:36:48;100615.72;;;-2.10;42.58
66588;BME280;53446;50.076;8.198;2024-01-10T00:38:48;100605.16;;;-2.15;42.34
66588;BME280;53446;50.076;8.198;2024-01-10T00:40:49;100622.81;;;-2.12;42.52
66588;BME280;53446;50.076;8.198;2024-01-10T00:42:49;100621.94;;;-2.13;42.56
66588;BME280;53446;50.076;8.198;2024-01-10T00:44:49;100619.28;;;-2.13;42.52
66588;BME280;53446;50.076;8.198;2024-01-10T00:46:49;100613.09;;;-2.15;42.35
66588;BME280;53446;50.076;8.198;2024-01-10T00:48:50;100614.00;;;-2.17;42.65
66588;BME280;53446;50.076;8.198;2024-01-10T00:50:50;100611.31;;;-2.16;42.77
66588;BME280;53446;50.076;8.198;2024-01-10T00:52:50;100611.31;;;-2.16;42.80
66588;BME280;53446;50.076;8.198;2024-01-10T00:54:51;100616.63;;;-2.16;42.67
66588;BME280;53446;50.076;8.198;2024-01-10T00:56:51;100617.53;;;-2.17;42.74
66588;BME280;53446;50.076;8.198;2024-01-10T00:58:51;100625.44;;;-2.14;42.80
66588;BME280;53446;50.076;8.198;2024-01-10T01:00:56;100614.84;;;-2.14;42.99
66588;BME280;53446;50.076;8.198;2024-01-10T01:02:56;100615.72;;;-2.13;43.26
66588;BME280;53446;50.076;8.198;2024-01-10T01:04:56;100606.03;;;-2.13;43.46
66588;BME280;53446;50.076;8.198;2024-01-10T01:06:56;100606.00;;;-2.09;43.37
66588;BME280;53446;50.076;8.198;2024-01-10T01:08:57;100605.13;;;-2.10;43.34
66588;BME280;53446;50.076;8.198;2024-01-10T01:10:58;100600.69;;;-2.11;43.24
66588;BME280;53446;50.076;8.198;2024-01-10T01:12:59;100605.13;;;-2.13;43.40
66588;BME280;53446;50.076;8.198;2024-01-10T01:14:59;100600.72;;;-2.16;43.59
66588;BME280;53446;50.076;8.198;2024-01-10T01:16:59;100596.31;;;-2.15;44.20
66588;BME280;53446;50.076;8.198;2024-01-10T01:18:59;100598.06;;;-2.16;43.80
66588;BME280;53446;50.076;8.198;2024-01-10T01:21:00;100600.72;;;-2.16;43.86
66588;BME280;53446;50.076;8.198;2024-01-10T01:23:00;100600.75;;;-2.19;43.70
66588;BME280;53446;50.076;8.198;2024-01-10T01:25:00;100606.94;;;-2.18;44.14
66588;BME280;53446;50.076;8.198;2024-01-10T01:27:01;100598.09;;;-2.19;44.07
66588;BME280;53446;50.076;8.198;2024-01-10T01:29:01;100608.72;;;-2.22;44.11
66588;BME280;53446;50.076;8.198;2024-01-10T01:31:02;100598.13;;;-2.23;44.28
66588;BME280;53446;50.076;8.198;2024-01-10T01:33:02;100604.31;;;-2.26;44.48
66588;BME280;53446;50.076;8.198;2024-01-10T01:35:05;100605.19;;;-2.27;44.60
66588;BME280;53446;50.076;8.198;2024-01-10T01:37:05;100604.31;;;-2.27;44.64
66588;BME280;53446;50.076;8.198;2024-01-10T01:39:05;100604.31;;;-2.26;44.82
66588;BME280;53446;50.076;8.198;2024-01-10T01:41:06;100609.63;;;-2.30;45.36
66588;BME280;53446;50.076;8.198;2024-01-10T01:43:39;100611.41;;;-2.31;45.57
66588;BME280;53446;50.076;8.198;2024-01-10T01:45:39;100602.59;;;-2.33;45.12
66588;BME280;53446;50.076;8.198;2024-01-10T01:47:40;100608.75;;;-2.34;45.15
66588;BME280;53446;50.076;8.198;2024-01-10T01:49:41;100611.44;;;-2.37;45.59
66588;BME280;53446;50.076;8.198;2024-01-10T01:51:43;100611.47;;;-2.43;45.89
66588;BME280;53446;50.076;8.198;2024-01-10T01:53:44;100618.53;;;-2.48;46.14
66588;BME280;53446;50.076;8.198;2024-01-10T01:55:45;100612.38;;;-2.53;46.55
66588;BME280;53446;50.076;8.198;2024-01-10T01:57:46;100615.91;;;-2.58;46.59
66588;BME280;53446;50.076;8.198;2024-01-10T01:59:46;100611.53;;;-2.62;46.46
66588;BME280;53446;50.076;8.198;2024-01-10T02:01:46;100612.41;;;-2.63;46.49
66588;BME280;53446;50.076;8.198;2024-01-10T02:03:47;100606.22;;;-2.65;46.57
66588;BME280;53446;50.076;8.198;2024-01-10T02:05:48;100604.50;;;-2.70;46.94
66588;BME280;53446;50.076;8.198;2024-01-10T02:07:48;100603.59;;;-2.72;47.30
66588;BME280;53446;50.076;8.198;2024-01-10T02:09:48;100602.72;;;-2.73;47.14
66588;BME280;53446;50.076;8.198;2024-01-10T02:11:48;100600.06;;;-2.74;46.83
66588;BME280;53446;50.076;8.198;2024-01-10T02:13:49;100597.47;;;-2.76;46.95
66588;BME280;53446;50.076;8.198;2024-01-10T02:15:50;100597.47;;;-2.76;47.16
66588;BME280;53446;50.076;8.198;2024-01-10T02:17:51;100593.94;;;-2.78;47.02
66588;BME280;53446;50.076;8.198;2024-01-10T02:20:14;100594.78;;;-2.79;47.91
66588;BME280;53446;50.076;8.198;2024-01-10T02:22:18;100602.75;;;-2.79;47.62
66588;BME280;53446;50.076;8.198;2024-01-10T02:24:18;100591.28;;;-2.81;47.68
66588;BME280;53446;50.076;8.198;2024-01-10T02:26:19;100592.16;;;-2.82;47.70
66588;BME280;53446;50.076;8.198;2024-01-10T02:28:19;100593.06;;;-2.83;48.08
66588;BME280;53446;50.076;8.198;2024-01-10T02:30:20;100590.41;;;-2.86;48.04
66588;BME280;53446;50.076;8.198;2024-01-10T02:32:20;100595.72;;;-2.88;48.09
66588;BME280;53446;50.076;8.198;2024-01-10T02:34:20;100592.19;;;-2.90;47.95
66588;BME280;53446;50.076;8.198;2024-01-10T02:36:20;100595.72;;;-2.92;48.11
66588;BME280;53446;50.076;8.198;2024-01-10T02:38:21;100592.19;;;-2.93;48.29
66588;BME280;53446;50.076;8.198;2024-01-10T02:40:23;100586.00;;;-2.93;48.61
66588;BME280;53446;50.076;8.198;2024-01-10T02:42:23;100579.84;;;-2.95;48.37
66588;BME280;53446;50.076;8.198;2024-01-10T02:44:24;100587.78;;;-2.95;49.60
66588;BME280;53446;50.076;8.198;2024-01-10T02:46:25;100582.50;;;-2.97;49.23
66588;BME280;53446;50.076;8.198;2024-01-10T02:48:27;100588.69;;;-3.00;49.17
66588;BME280;53446;50.076;8.198;2024-01-10T02:50:27;100588.69;;;-3.00;49.38
66588;BME280;53446;50.076;8.198;2024-01-10T02:52:28;100594.84;;;-2.99;49.44
66588;BME280;53446;50.076;8.198;2024-01-10T02:54:28;100586.91;;;-2.99;49.31
66588;BME280;53446;50.076;8.198;2024-01-10T02:56:28;100588.69;;;-3.00;49.86
66588;BME280;53446;50.076;8.198;2024-01-10T02:58:28;100593.09;;;-3.03;50.56
66588;BME280;53446;50.076;8.198;2024-01-10T03:00:29;100585.19;;;-3.06;53.84
66588;BME280;53446;50.076;8.198;2024-01-10T03:02:30;100586.94;;;-3.10;55.60
66588;BME280;53446;50.076;8.198;2024-01-10T03:04:30;100586.94;;;-3.13;57.89
66588;BME280;53446;50.076;8.198;2024-01-10T03:06:30;100583.44;;;-3.16;61.34
66588;BME280;53446;50.076;8.198;2024-01-10T03:08:31;100583.44;;;-3.24;63.30
66588;BME280;53446;50.076;8.198;2024-01-10T03:10:31;100585.19;;;-3.29;63.06
66588;BME280;53446;50.076;8.198;2024-01-10T03:12:31;100579.03;;;-3.34;62.64
66588;BME280;53446;50.076;8.198;2024-01-10T03:14:32;100586.06;;;-3.38;67.08
66588;BME280;53446;50.076;8.198;2024-01-10T03:16:33;100573.75;;;-3.41;66.97
66588;BME280;53446;50.076;8.198;2024-01-10T03:18:33;100582.56;;;-3.43;69.18
66588;BME280;53446;50.076;8.198;2024-01-10T03:20:33;100576.41;;;-3.47;70.80
66588;BME280;53446;50.076;8.198;2024-01-10T03:22:34;100572.00;;;-3.51;71.69
66588;BME280;53446;50.076;8.198;2024-01-10T03:24:34;100564.97;;;-3.52;71.23
66588;BME280;53446;50.076;8.198;2024-01-10T03:26:35;100572.00;;;-3.54;75.55
66588;BME280;53446;50.076;8.198;2024-01-10T03:28:35;100576.41;;;-3.56;76.96
66588;BME280;53446;50.076;8.198;2024-01-10T03:30:35;100570.22;;;-3.58;76.14
66588;BME280;53446;50.076;8.198;2024-01-10T03:32:36;100569.34;;;-3.60;75.96
66588;BME280;53446;50.076;8.198;2024-01-10T03:34:36;100569.34;;;-3.63;76.16
66588;BME280;53446;50.076;8.198;2024-01-10T03:36:36;100565.81;;;-3.62;78.08
66588;BME280;53446;50.076;8.198;2024-01-10T03:38:37;100556.13;;;-3.65;79.44
66588;BME280;53446;50.076;8.198;2024-01-10T03:40:37;100566.69;;;-3.62;78.31
66588;BME280;53446;50.076;8.198;2024-01-10T03:42:37;100564.03;;;-3.66;75.86
66588;BME280;53446;50.076;8.198;2024-01-10T03:44:37;100563.19;;;-3.65;76.36
66588;BME280;53446;50.076;8.198;2024-01-10T03:46:38;100570.22;;;-3.63;74.10
66588;BME280;53446;50.076;8.198;2024-01-10T03:48:38;100561.41;;;-3.62;73.04
66588;BME280;53446;50.076;8.198;2024-01-10T03:50:47;100565.84;;;-3.59;69.57
66588;BME280;53446;50.076;8.198;2024-01-10T03:52:47;100566.72;;;-3.55;67.08
66588;BME280;53446;50.076;8.198;2024-01-10T03:54:48;100561.41;;;-3.52;66.94
66588;BME280;53446;50.076;8.198;2024-01-10T03:56:48;100571.13;;;-3.47;64.92
66588;BME280;53446;50.076;8.198;2024-01-10T03:58:48;100561.41;;;-3.42;64.04
66588;BME280;53446;50.076;8.198;2024-01-10T04:00:48;100570.22;;;-3.38;67.80
66588;BME280;53446;50.076;8.198;2024-01-10T04:02:49;100561.41;;;-3.37;75.31
66588;BME280;53446;50.076;8.198;2024-01-10T04:04:49;100559.66;;;-3.39;76.41
66588;BME280;53446;50.076;8.198;2024-01-10T04:06:50;100567.56;;;-3.43;77.08
66588;BME280;53446;50.076;8.198;2024-01-10T04:08:50;100562.28;;;-3.46;88.32
66588;BME280;53446;50.076;8.198;2024-01-10T04:10:50;100566.72;;;-3.51;91.87
66588;BME280;53446;50.076;8.198;2024-01-10T04:12:50;100571.09;;;-3.54;89.66
66588;BME280;53446;50.076;8.198;2024-01-10T04:14:51;100564.06;;;-3.60;90.22
66588;BME280;53446;50.076;8.198;2024-01-10T04:16:53;100568.47;;;-3.62;87.26
66588;BME280;53446;50.076;8.198;2024-01-10T04:18:53;100567.56;;;-3.64;87.52
66588;BME280;53446;50.076;8.198;2024-01-10T04:20:54;100568.47;;;-3.64;89.33
66588;BME280;53446;50.076;8.198;2024-01-10T04:22:54;100570.25;;;-3.66;90.23
66588;BME280;53446;50.076;8.198;2024-01-10T04:24:58;100564.94;;;-3.66;88.66
66588;BME280;53446;50.076;8.198;2024-01-10T04:26:58;100562.31;;;-3.61;82.52
66588;BME280;53446;50.076;8.198;2024-01-10T04:28:59;100566.69;;;-3.57;78.68
66588;BME280;53446;50.076;8.198;2024-01-10T04:31:00;100562.31;;;-3.52;78.05
66588;BME280;53446;50.076;8.198;2024-01-10T04:33:00;100563.19;;;-3.47;72.07
66588;BME280;53446;50.076;8.198;2024-01-10T04:35:00;100569.34;;;-3.42;71.02
66588;BME280;53446;50.076;8.198;2024-01-10T04:37:01;100566.69;;;-3.35;69.02
66588;BME280;53446;50.076;8.198;2024-01-10T04:39:01;100564.03;;;-3.29;67.79
66588;BME280;53446;50.076;8.198;2024-01-10T04:41:01;100561.38;;;-3.25;67.77
66588;BME280;53446;50.076;8.198;2024-01-10T04:43:02;100558.75;;;-3.20;66.37
66588;BME280;53446;50.076;8.198;2024-01-10T04:45:02;100556.97;;;-3.15;65.96
66588;BME280;53446;50.076;8.198;2024-01-10T04:47:03;100559.59;;;-3.09;65.49
66588;BME280;53446;50.076;8.198;2024-01-10T04:49:04;100562.25;;;-3.04;64.02
66588;BME280;53446;50.076;8.198;2024-01-10T04:51:04;100565.75;;;-3.01;63.88
66588;BME280;53446;50.076;8.198;2024-01-10T04:53:04;100568.38;;;-2.94;65.02
66588;BME280;53446;50.076;8.198;2024-01-10T04:55:05;100567.50;;;-2.90;63.52
66588;BME280;53446;50.076;8.198;2024-01-10T04:57:06;100560.44;;;-2.85;63.26
66588;BME280;53446;50.076;8.198;2024-01-10T04:59:07;100564.81;;;-2.83;63.90
66588;BME280;53446;50.076;8.198;2024-01-10T05:01:07;100566.59;;;-2.80;63.62
66588;BME280;53446;50.076;8.198;2024-01-10T05:03:08;100560.41;;;-2.76;62.79
66588;BME280;53446;50.076;8.198;2024-01-10T05:05:09;100560.38;;;-2.73;62.46
66588;BME280;53446;50.076;8.198;2024-01-10T05:07:09;100556.84;;;-2.70;60.79
66588;BME280;53446;50.076;8.198;2024-01-10T05:09:09;100560.34;;;-2.70;60.12
66588;BME280;53446;50.076;8.198;2024-01-10T05:11:10;100564.78;;;-2.70;59.35
66588;BME280;53446;50.076;8.198;2024-01-10T05:13:12;100570.06;;;-2.69;59.24
66588;BME280;53446;50.076;8.198;2024-01-10T05:15:12;100558.59;;;-2.66;58.66
66588;BME280;53446;50.076;8.198;2024-01-10T05:17:12;100555.06;;;-2.64;58.41
66588;BME280;53446;50.076;8.198;2024-01-10T05:19:13;100557.69;;;-2.64;58.82
66588;BME280;53446;50.076;8.198;2024-01-10T05:21:13;100563.00;;;-2.64;59.61
66588;BME280;53446;50.076;8.198;2024-01-10T05:23:13;100562.09;;;-2.61;58.07
66588;BME280;53446;50.076;8.198;2024-01-10T05:25:14;100555.03;;;-2.61;57.57
66588;BME280;53446;50.076;8.198;2024-01-10T05:27:14;100554.16;;;-2.60;57.40
66588;BME280;53446;50.076;8.198;2024-01-10T05:29:14;100558.56;;;-2.59;57.31
66588;BME280;53446;50.076;8.198;2024-01-10T05:31:15;100561.19;;;-2.56;57.18
66588;BME280;53446;50.076;8.198;2024-01-10T05:33:15;100556.75;;;-2.53;57.13
66588;BME280;53446;50.076;8.198;2024-01-10T05:35:15;100562.94;;;-2.50;57.35
66588;BME280;53446;50.076;8.198;2024-01-10T05:37:16;100562.03;;;-2.47;57.11
66588;BME280;53446;50.076;8.198;2024-01-10T05:39:16;100554.94;;;-2.44;56.92
66588;BME280;53446;50.076;8.198;2024-01-10T05:41:16;100547.00;;;-2.41;57.00
66588;BME280;53446;50.076;8.198;2024-01-10T05:43:17;100556.69;;;-2.41;56.78
66588;BME280;53446;50.076;8.198;2024-01-10T05:45:17;100553.19;;;-2.40;56.54
66588;BME280;53446;50.076;8.198;2024-01-10T05:47:18;100550.50;;;-2.37;56.30
66588;BME280;53446;50.076;8.198;2024-01-10T05:49:18;100552.25;;;-2.35;56.50
66588;BME280;53446;50.076;8.198;2024-01-10T05:51:18;100558.41;;;-2.29;56.53
66588;BME280;53446;50.076;8.198;2024-01-10T05:53:19;100553.09;;;-2.28;56.50
66588;BME280;53446;50.076;8.198;2024-01-10T05:55:19;100559.28;;;-2.27;56.33
66588;BME280;53446;50.076;8.198;2024-01-10T05:57:19;100549.59;;;-2.30;56.60
66588;BME280;53446;50.076;8.198;2024-01-10T05:59:21;100547.84;;;-2.31;56.49
66588;BME280;53446;50.076;8.198;2024-01-10T06:01:21;100552.25;;;-2.33;56.28
66588;BME280;53446;50.076;8.198;2024-01-10T06:03:22;100547.81;;;-2.34;56.13
66588;BME280;53446;50.076;8.198;2024-01-10T06:05:22;100550.50;;;-2.36;56.22
66588;BME280;53446;50.076;8.198;2024-01-10T06:07:22;100553.16;;;-2.37;55.96
66588;BME280;53446;50.076;8.198;2024-01-10T06:09:22;100556.69;;;-2.38;55.88
66588;BME280;53446;50.076;8.198;2024-01-10T06:11:23;100555.81;;;-2.42;55.95
66588;BME280;53446;50.076;8.198;2024-01-10T06:13:23;100559.38;;;-2.44;56.24
66588;BME280;53446;50.076;8.198;2024-01-10T06:15:23;100545.28;;;-2.48;55.82
66588;BME280;53446;50.076;8.198;2024-01-10T06:17:24;100547.91;;;-2.49;55.65
66588;BME280;53446;50.076;8.198;2024-01-10T06:19:24;100547.03;;;-2.51;55.86
66588;BME280;53446;50.076;8.198;2024-01-10T06:21:24;100556.75;;;-2.53;56.00
66588;BME280;53446;50.076;8.198;2024-01-10T06:23:25;100549.72;;;-2.56;56.05
66588;BME280;53446;50.076;8.198;2024-01-10T06:25:25;100548.84;;;-2.57;55.97
66588;BME280;53446;50.076;8.198;2024-01-10T06:27:26;100555.03;;;-2.59;55.88
66588;BME280;53446;50.076;8.198;2024-01-10T06:29:26;100554.16;;;-2.61;56.01
66588;BME280;53446;50.076;8.198;2024-01-10T06:31:26;100558.56;;;-2.62;56.12
66588;BME280;53446;50.076;8.198;2024-01-10T06:33:27;100560.34;;;-2.62;56.60
66588;BME280;53446;50.076;8.198;2024-01-10T06:35:27;100555.94;;;-2.62;56.43
66588;BME280;53446;50.076;8.198;2024-01-10T06:37:28;100556.81;;;-2.61;56.90
66588;BME280;53446;50.076;8.198;2024-01-10T06:39:28;100563.88;;;-2.62;56.60
66588;BME280;53446;50.076;8.198;2024-01-10T06:41:28;100563.88;;;-2.62;56.63
66588;BME280;53446;50.076;8.198;2024-01-10T06:43:29;100557.69;;;-2.64;57.20
66588;BME280;53446;50.076;8.198;2024-01-10T06:45:29;100563.88;;;-2.62;56.95
66588;BME280;53446;50.076;8.198;2024-01-10T06:47:29;100555.94;;;-2.62;56.90
66588;BME280;53446;50.076;8.198;2024-01-10T06:49:29;100562.09;;;-2.63;56.62
66588;BME280;53446;50.076;8.198;2024-01-10T06:51:31;100560.34;;;-2.64;56.82
66588;BME280;53446;50.076;8.198;2024-01-10T06:53:32;100558.59;;;-2.66;57.37
66588;BME280;53446;50.076;8.198;2024-01-10T06:55:32;100561.25;;;-2.66;57.33
66588;BME280;53446;50.076;8.198;2024-01-10T06:57:32;100563.88;;;-2.68;57.19
66588;BME280;53446;50.076;8.198;2024-01-10T06:59:32;100562.13;;;-2.69;57.20
66588;BME280;53446;50.076;8.198;2024-01-10T07:01:33;100558.59;;;-2.71;57.15
66588;BME280;53446;50.076;8.198;2024-01-10T07:03:33;100561.25;;;-2.71;57.29
66588;BME280;53446;50.076;8.198;2024-01-10T07:05:34;100562.16;;;-2.75;57.49
66588;BME280;53446;50.076;8.198;2024-01-10T07:07:35;100563.03;;;-2.74;57.89
66588;BME280;53446;50.076;8.198;2024-01-10T07:09:35;100570.09;;;-2.75;57.86
66588;BME280;53446;50.076;8.198;2024-01-10T07:11:35;100567.44;;;-2.75;58.17
66588;BME280;53446;50.076;8.198;2024-01-10T07:13:36;100572.72;;;-2.72;57.83
66588;BME280;53446;50.076;8.198;2024-01-10T07:15:36;100576.25;;;-2.73;57.59
66588;BME280;53446;50.076;8.198;2024-01-10T07:17:38;100572.72;;;-2.72;57.59
66588;BME280;53446;50.076;8.198;2024-01-10T07:19:39;100572.72;;;-2.72;58.00
66588;BME280;53446;50.076;8.198;2024-01-10T07:21:41;100583.31;;;-2.69;57.96
66588;BME280;53446;50.076;8.198;2024-01-10T07:23:41;100578.91;;;-2.67;57.64
66588;BME280;53446;50.076;8.198;2024-01-10T07:25:43;100582.41;;;-2.66;57.82
66588;BME280;53446;50.076;8.198;2024-01-10T07:27:44;100587.69;;;-2.65;57.60
66588;BME280;53446;50.076;8.198;2024-01-10T07:29:44;100587.69;;;-2.65;57.99
66588;BME280;53446;50.076;8.198;2024-01-10T07:31:44;100590.34;;;-2.62;57.82
66588;BME280;53446;50.076;8.198;2024-01-10T07:33:45;100593.88;;;-2.60;57.84
66588;BME280;53446;50.076;8.198;2024-01-10T07:35:45;100593.84;;;-2.57;58.06
66588;BME280;53446;50.076;8.198;2024-01-10T07:37:45;100594.72;;;-2.53;57.86
66588;BME280;53446;50.076;8.198;2024-01-10T07:39:46;100596.50;;;-2.52;57.73
66588;BME280;53446;50.076;8.198;2024-01-10T07:41:46;100596.47;;;-2.50;57.70
66588;BME280;53446;50.076;8.198;2024-01-10T07:43:50;100606.16;;;-2.46;57.77
66588;BME280;53446;50.076;8.198;2024-01-10T07:45:50;100601.75;;;-2.43;57.56
66588;BME280;53446;50.076;8.198;2024-01-10T07:47:50;100603.47;;;-2.37;57.54
66588;BME280;53446;50.076;8.198;2024-01-10T07:49:50;100604.34;;;-2.32;57.48
66588;BME280;53446;50.076;8.198;2024-01-10T07:51:51;100598.13;;;-2.29;57.51
66588;BME280;53446;50.076;8.198;2024-01-10T07:53:51;100606.06;;;-2.25;57.65
66588;BME280;53446;50.076;8.198;2024-01-10T07:55:51;100608.72;;;-2.23;57.59
66588;BME280;53446;50.076;8.198;2024-01-10T07:57:52;100606.03;;;-2.20;57.56
66588;BME280;53446;50.076;8.198;2024-01-10T07:59:53;100609.53;;;-2.15;57.98
66588;BME280;53446;50.076;8.198;2024-01-10T08:01:56;100614.84;;;-2.07;58.00
66588;BME280;53446;50.076;8.198;2024-01-10T08:04:00;100613.03;;;-2.02;57.73
66588;BME280;53446;50.076;8.198;2024-01-10T08:06:00;100610.34;;;-1.95;57.67
66588;BME280;53446;50.076;8.198;2024-01-10T08:08:00;100611.19;;;-1.89;57.59
66588;BME280;53446;50.076;8.198;2024-01-10T08:10:00;100622.63;;;-1.81;57.22
66588;BME280;53446;50.076;8.198;2024-01-10T08:12:01;100615.53;;;-1.75;57.21
66588;BME280;53446;50.076;8.198;2024-01-10T08:14:01;100616.38;;;-1.69;56.70
66588;BME280;53446;50.076;8.198;2024-01-10T08:16:01;100611.91;;;-1.63;56.41
66588;BME280;53446;50.076;8.198;2024-01-10T08:18:03;100614.47;;;-1.54;56.38
66588;BME280;53446;50.076;8.198;2024-01-10T08:20:07;100617.09;;;-1.46;55.88
66588;BME280;53446;50.076;8.198;2024-01-10T08:22:08;100615.25;;;-1.39;56.03
66588;BME280;53446;50.076;8.198;2024-01-10T08:24:08;100617.84;;;-1.32;56.38
66588;BME280;53446;50.076;8.198;2024-01-10T08:26:08;100620.44;;;-1.25;55.88
66588;BME280;53446;50.076;8.198;2024-01-10T08:28:09;100623.00;;;-1.16;55.64
66588;BME280;53446;50.076;8.198;2024-01-10T08:30:10;100622.06;;;-1.08;55.33
66588;BME280;53446;50.076;8.198;2024-01-10T08:32:10;100626.41;;;-1.02;55.27
66588;BME280;53446;50.076;8.198;2024-01-10T08:34:11;100628.09;;;-0.93;55.15
66588;BME280;53446;50.076;8.198;2024-01-10T08:36:12;100617.44;;;-0.87;54.67
66588;BME280;53446;50.076;8.198;2024-01-10T08:38:12;100627.97;;;-0.79;54.59
66588;BME280;53446;50.076;8.198;2024-01-10T08:40:13;100625.22;;;-0.72;54.28
66588;BME280;53446;50.076;8.198;2024-01-10T08:42:15;100619.88;;;-0.66;54.23
66588;BME280;53446;50.076;8.198;2024-01-10T08:44:15;100623.31;;;-0.56;53.72
66588;BME280;53446;50.076;8.198;2024-01-10T08:46:16;100628.50;;;-0.48;53.34
66588;BME280;53446;50.076;8.198;2024-01-10T08:48:16;100629.34;;;-0.41;53.03
66588;BME280;53446;50.076;8.198;2024-01-10T08:50:16;100632.81;;;-0.38;52.86
66588;BME280;53446;50.076;8.198;2024-01-10T08:52:16;100624.78;;;-0.30;52.76
66588;BME280;53446;50.076;8.198;2024-01-10T08:54:17;100626.41;;;-0.22;52.47
66588;BME280;53446;50.076;8.198;2024-01-10T08:56:19;100637.84;;;-0.12;51.94
66588;BME280;53446;50.076;8.198;2024-01-10T08:58:20;100635.91;;;-0.01;51.64
66588;BME280;53446;50.076;8.198;2024-01-10T09:00:20;100635.72;;;0.12;51.41
66588;BME280;53446;50.076;8.198;2024-01-10T09:02:21;100641.81;;;0.22;51.29
66588;BME280;53446;50.076;8.198;2024-01-10T09:04:23;100638.09;;;0.33;51.03
66588;BME280;53446;50.076;8.198;2024-01-10T09:06:24;100638.81;;;0.45;50.82
66588;BME280;53446;50.076;8.198;2024-01-10T09:08:24;100647.56;;;0.53;50.43
66588;BME280;53446;50.076;8.198;2024-01-10T09:10:24;100649.31;;;0.55;50.24
66588;BME280;53446;50.076;8.198;2024-01-10T09:12:28;100646.56;;;0.60;50.15
66588;BME280;53446;50.076;8.198;2024-01-10T09:14:28;100644.84;;;0.57;49.73
66588;BME280;53446;50.076;8.198;2024-01-10T09:16:28;100649.28;;;0.57;49.70
66588;BME280;53446;50.076;8.198;2024-01-10T09:18:29;100651.03;;;0.56;49.75
66588;BME280;53446;50.076;8.198;2024-01-10T09:20:29;100645.63;;;0.62;49.94
66588;BME280;53446;50.076;8.198;2024-01-10T09:22:29;100641.97;;;0.71;50.06
66588;BME280;53446;50.076;8.198;2024-01-10T09:24:29;100647.13;;;0.80;49.90
66588;BME280;53446;50.076;8.198;2024-01-10T09:26:30;100652.28;;;0.90;49.60
66588;BME280;53446;50.076;8.198;2024-01-10T09:28:30;100656.59;;;0.98;49.06
66588;BME280;53446;50.076;8.198;2024-01-10T09:30:30;100655.63;;;1.04;48.95
66588;BME280;53446;50.076;8.198;2024-01-10T09:32:31;100653.69;;;1.12;48.97
66588;BME280;53446;50.076;8.198;2024-01-10T09:34:31;100653.53;;;1.21;48.69
66588;BME280;53446;50.076;8.198;2024-01-10T09:36:32;100654.31;;;1.28;48.64
66588;BME280;53446;50.076;8.198;2024-01-10T09:38:36;100658.63;;;1.34;48.31
66588;BME280;53446;50.076;8.198;2024-01-10T09:40:37;100654.16;;;1.36;47.83
66588;BME280;53446;50.076;8.198;2024-01-10T09:42:38;100662.03;;;1.42;47.81
66588;BME280;53446;50.076;8.198;2024-01-10T09:44:38;100653.03;;;1.47;47.63
66588;BME280;53446;50.076;8.198;2024-01-10T09:46:38;100657.41;;;1.52;47.50
66588;BME280;53446;50.076;8.198;2024-01-10T09:48:41;100652.81;;;1.58;47.77
66588;BME280;53446;50.076;8.198;2024-01-10T09:50:41;100659.69;;;1.70;47.54
66588;BME280;53446;50.076;8.198;2024-01-10T09:52:51;100647.09;;;1.80;47.40
66588;BME280;53446;50.076;8.198;2024-01-10T09:54:54;100651.31;;;1.90;46.80
66588;BME280;53446;50.076;8.198;2024-01-10T09:56:59;100652.06;;;1.97;46.53
66588;BME280;53446;50.076;8.198;2024-01-10T09:59:01;100651.16;;;1.98;46.41
66588;BME280;53446;50.076;8.198;2024-01-10T10:01:02;100650.19;;;2.00;46.47
66588;BME280;53446;50.076;8.198;2024-01-10T10:03:07;100645.63;;;2.05;46.35
66588;BME280;53446;50.076;8.198;2024-01-10T10:05:16;100641.94;;;2.12;45.83
66588;BME280;53446;50.076;8.198;2024-01-10T10:07:17;100639.25;;;2.12;45.93
66588;BME280;53446;50.076;8.198;2024-01-10T10:09:17;100640.94;;;2.17;45.72
66588;BME280;53446;50.076;8.198;2024-01-10T10:11:18;100640.19;;;2.10;45.22
66588;BME280;53446;50.076;8.198;2024-01-10T10:13:29;100636.81;;;2.03;45.32
66588;BME280;53446;50.076;8.198;2024-01-10T10:15:29;100638.56;;;2.03;45.63
66588;BME280;53446;50.076;8.198;2024-01-10T10:17:30;100634.16;;;2.02;45.58
66588;BME280;53446;50.076;8.198;2024-01-10T10:19:30;100633.41;;;1.97;45.30
66588;BME280;53446;50.076;8.198;2024-01-10T10:21:31;100639.69;;;1.93;45.59
66588;BME280;53446;50.076;8.198;2024-01-10T10:23:32;100629.19;;;1.85;45.43
66588;BME280;53446;50.076;8.198;2024-01-10T10:25:34;100635.44;;;1.84;45.63
66588;BME280;53446;50.076;8.198;2024-01-10T10:27:36;100630.06;;;1.85;45.51
66588;BME280;53446;50.076;8.198;2024-01-10T10:29:37;100633.59;;;1.87;45.45
66588;BME280;53446;50.076;8.198;2024-01-10T10:31:37;100624.66;;;1.88;45.36
66588;BME280;53446;50.076;8.198;2024-01-10T10:33:37;100639.69;;;1.93;45.51